createdAt,value
2023-02-21T20:38:41.199Z,72.47
2023-02-21T20:40:46.005Z,62.20
2023-02-21T20:42:55.804Z,75.95
2023-02-21T20:45:01.843Z,67.38
2023-02-21T20:47:06.516Z,73.10
2023-02-21T20:49:14.052Z,76.82
2023-02-21T20:51:18.890Z,74.25
2023-02-21T20:53:24.172Z,61.95
2023-02-21T20:55:28.065Z,71.43
2023-02-21T20:57:31.975Z,68.10
2023-02-21T20:59:37.487Z,68.60
2023-02-21T21:01:43.208Z,68.22
2023-02-21T21:03:47.098Z,59.58
2023-02-21T21:05:50.994Z,75.03
2023-02-21T21:07:56.214Z,63.42
2023-02-21T21:10:01.449Z,66.65
2023-02-21T21:12:08.994Z,75.18
2023-02-21T21:14:16.383Z,64.78
2023-02-21T21:16:21.124Z,66.57
2023-02-21T21:18:25.095Z,55.08
2023-02-21T21:20:28.955Z,53.88
2023-02-21T21:22:32.885Z,54.63
2023-02-21T21:24:36.937Z,69.90
2023-02-21T21:26:53.378Z,57.30
2023-02-21T21:29:16.758Z,69.90
2023-02-21T21:32:37.266Z,57.33
2023-02-21T21:39:56.878Z,51.42
2023-02-21T21:46:34.211Z,51.55
2023-02-21T21:50:33.829Z,57.45
2023-02-21T21:52:25.595Z,50.40
2023-02-21T21:54:31.349Z,52.40
2023-02-21T21:56:35.777Z,51.50
2023-02-21T21:58:42.062Z,50.95
2023-02-21T22:00:46.344Z,60.33
2023-02-21T22:02:51.731Z,56.20
2023-02-21T22:04:55.681Z,32.35
2023-02-21T22:06:59.586Z,48.05
2023-02-21T22:09:03.440Z,42.38
2023-02-21T22:11:09.731Z,47.47
2023-02-21T22:13:14.500Z,58.42
2023-02-21T22:15:20.267Z,56.60
2023-02-21T22:17:24.085Z,54.92
2023-02-21T22:19:29.269Z,48.42
2023-02-21T22:21:34.580Z,51.53
2023-02-21T22:23:41.395Z,48.47
